Time;durP1;ratioP1;P1;durP2;ratioP2;P2;SDS_P1;SDS_P2;PMS_P1;PMS_P2;Temp;Humidity;BMP_temperature;BMP_pressure;BME280_temperature;BME280_humidity;BME280_pressure;Samples;Min_cycle;Max_cycle;Signal;HPM_P1;HPM_P2
2022/07/23 00:00:12;;;;;;;10.25;9.25;;;;;;;22.45;100.00;99243.16;5045327;28;20763;-78
2022/07/23 00:02:38;;;;;;;10.35;9.27;;;;;;;22.40;100.00;99236.69;5043295;28;20319;-79
2022/07/23 00:05:05;;;;;;;10.70;9.55;;;;;;;22.43;100.00;99240.75;5047496;28;20317;-79
2022/07/23 00:07:32;;;;;;;10.10;9.32;;;;;;;22.38;100.00;99238.13;5046826;28;20320;-79
2022/07/23 00:09:59;;;;;;;10.05;9.25;;;;;;;22.34;100.00;99242.59;5040244;28;20234;-80
2022/07/23 00:12:26;;;;;;;10.80;9.80;;;;;;;22.31;100.00;99240.47;5078275;28;20230;-79
2022/07/23 00:14:52;;;;;;;11.25;10.15;;;;;;;22.31;100.00;99232.28;5040731;28;20222;-80
2022/07/23 00:17:19;;;;;;;10.45;9.57;;;;;;;22.31;100.00;99235.00;5046990;28;20243;-79
2022/07/23 00:19:46;;;;;;;10.30;9.40;;;;;;;22.30;100.00;99236.91;5045675;28;20238;-79
2022/07/23 00:22:13;;;;;;;10.38;9.50;;;;;;;22.26;100.00;99246.84;5039370;28;20257;-79
2022/07/23 00:24:40;;;;;;;10.27;9.32;;;;;;;22.24;100.00;99248.25;5041433;28;20323;-79
2022/07/23 00:27:06;;;;;;;10.57;9.70;;;;;;;22.22;100.00;99248.56;5039653;28;20233;-80
2022/07/23 00:29:33;;;;;;;10.20;9.27;;;;;;;22.24;100.00;99240.06;5041562;28;20316;-79
2022/07/23 00:32:00;;;;;;;10.60;9.80;;;;;;;22.19;100.00;99248.38;5039265;28;20704;-79
2022/07/23 00:34:26;;;;;;;10.63;9.73;;;;;;;22.16;100.00;99249.75;5043369;28;20328;-79
2022/07/23 00:36:53;;;;;;;11.02;10.02;;;;;;;22.14;100.00;99254.75;5046269;28;20660;-81
2022/07/23 00:39:23;;;;;;;11.88;10.82;;;;;;;22.11;100.00;99260.00;5043869;28;20589;-79
2022/07/23 00:41:51;;;;;;;11.20;10.07;;;;;;;22.02;100.00;99251.72;5042963;28;20238;-79
2022/07/23 00:44:21;;;;;;;10.95;9.95;;;;;;;22.05;100.00;99251.09;5045690;28;20226;-79
2022/07/23 00:46:52;;;;;;;11.63;10.57;;;;;;;22.04;100.00;99252.22;5045234;28;20271;-79
2022/07/23 00:49:21;;;;;;;10.88;9.98;;;;;;;22.01;100.00;99249.28;5043573;28;20225;-79
2022/07/23 00:51:48;;;;;;;12.07;10.98;;;;;;;22.01;100.00;99247.38;5039474;28;20229;-79
2022/07/23 00:54:16;;;;;;;11.48;10.38;;;;;;;21.99;100.00;99254.22;5041104;28;20598;-79
2022/07/23 00:56:44;;;;;;;11.02;10.13;;;;;;;21.98;100.00;99256.16;5042870;28;20775;-79
2022/07/23 00:59:11;;;;;;;11.43;10.63;;;;;;;21.95;100.00;99251.31;5042374;28;20234;-80
2022/07/23 01:01:38;;;;;;;11.02;9.95;;;;;;;21.94;100.00;99260.59;5044479;28;20423;-79
2022/07/23 01:04:05;;;;;;;12.18;10.85;;;;;;;21.93;100.00;99259.78;5039749;28;20270;-79
2022/07/23 01:06:36;;;;;;;11.75;10.52;;;;;;;21.93;100.00;99258.97;5047065;28;20257;-79
2022/07/23 01:09:04;;;;;;;12.77;11.50;;;;;;;21.94;100.00;99245.03;5040571;28;20325;-79
2022/07/23 01:11:36;;;;;;;13.05;11.30;;;;;;;21.94;100.00;99246.97;5042977;28;20701;-78
2022/07/23 01:14:13;;;;;;;12.57;11.43;;;;;;;21.92;100.00;99239.06;5041077;28;20239;-79
2022/07/23 01:16:41;;;;;;;11.95;10.95;;;;;;;21.92;100.00;99236.34;5073712;28;20252;-79
2022/07/23 01:19:08;;;;;;;12.10;10.77;;;;;;;21.96;100.00;99244.75;5040095;28;20321;-78
2022/07/23 01:21:48;;;;;;;12.30;11.40;;;;;;;21.94;100.00;99236.84;5043945;28;20597;-79
2022/07/23 01:24:15;;;;;;;12.60;11.35;;;;;;;22.01;100.00;99241.91;5041755;28;20241;-80
2022/07/23 01:26:54;;;;;;;12.38;11.38;;;;;;;22.04;100.00;99240.50;5041769;28;20610;-79
2022/07/23 01:29:21;;;;;;;12.43;11.32;;;;;;;22.02;100.00;99240.00;5058269;28;20237;-78
2022/07/23 01:31:48;;;;;;;11.60;10.70;;;;;;;22.03;100.00;99244.31;5041930;28;20638;-79
2022/07/23 01:34:15;;;;;;;12.65;11.43;;;;;;;22.05;100.00;99247.56;5041565;28;20233;-78
2022/07/23 01:36:42;;;;;;;12.40;11.40;;;;;;;22.08;100.00;99268.78;5042377;28;20303;-79
2022/07/23 01:39:10;;;;;;;12.18;11.18;;;;;;;22.17;100.00;99307.88;5041098;28;20251;-78
2022/07/23 01:41:36;;;;;;;12.48;11.40;;;;;;;22.18;100.00;99291.22;5042409;28;20234;-79
2022/07/23 01:44:03;;;;;;;11.95;10.82;;;;;;;22.28;100.00;99284.75;5044684;28;20717;-78
2022/07/23 01:46:30;;;;;;;11.73;10.80;;;;;;;22.27;100.00;99280.38;5043814;28;20230;-79
2022/07/23 01:48:57;;;;;;;12.02;10.93;;;;;;;22.33;100.00;99282.72;5045640;28;20229;-79
2022/07/23 01:52:00;;;;;;;11.70;10.50;;;;;;;22.46;100.00;99283.00;5046387;28;20237;-79
2022/07/23 01:54:33;;;;;;;11.55;10.60;;;;;;;22.51;100.00;99274.69;5043909;28;20222;-79
2022/07/23 01:57:02;;;;;;;12.05;11.00;;;;;;;22.64;100.00;99268.38;5046645;28;20255;-79
2022/07/23 01:59:29;;;;;;;11.50;10.60;;;;;;;22.69;100.00;99274.56;5043337;28;20752;-78
2022/07/23 02:01:56;;;;;;;11.68;10.68;;;;;;;22.72;100.00;99257.56;5044993;28;20226;-78
2022/07/23 02:04:24;;;;;;;12.68;11.13;;;;;;;22.76;100.00;99244.13;5043457;28;20615;-78
2022/07/23 02:06:52;;;;;;;11.70;10.50;;;;;;;22.72;100.00;99234.94;5046680;28;20886;-78
2022/07/23 02:09:19;;;;;;;11.30;10.40;;;;;;;22.74;100.00;99247.16;5043476;28;20234;-78
2022/07/23 02:11:46;;;;;;;11.68;10.80;;;;;;;22.74;100.00;99249.91;5046339;28;20232;-78
2022/07/23 02:14:13;;;;;;;11.70;10.70;;;;;;;22.72;100.00;99246.66;5027942;28;20327;-79
2022/07/23 02:16:39;;;;;;;10.90;10.00;;;;;;;22.74;100.00;99251.81;5045942;28;20312;-78
2022/07/23 02:19:06;;;;;;;11.63;10.63;;;;;;;22.80;100.00;99240.47;5047155;28;20616;-79
2022/07/23 02:21:33;;;;;;;11.77;10.77;;;;;;;22.80;100.00;99240.47;5044651;28;20234;-80
2022/07/23 02:23:59;;;;;;;11.20;10.18;;;;;;;22.79;100.00;99244.31;5047939;28;20795;-77
2022/07/23 02:26:27;;;;;;;11.60;10.57;;;;;;;22.82;100.00;99238.22;5027665;28;20233;-78
2022/07/23 02:28:54;;;;;;;12.02;11.02;;;;;;;22.82;100.00;99224.56;5043791;28;20667;-79
2022/07/23 02:31:21;;;;;;;12.10;11.05;;;;;;;22.86;100.00;99226.69;5053019;28;20316;-79
2022/07/23 02:33:47;;;;;;;11.82;10.82;;;;;;;22.89;100.00;99226.06;5045014;28;20245;-78
2022/07/23 02:36:16;;;;;;;12.40;11.20;;;;;;;22.93;100.00;99214.22;5044893;28;20255;-79
2022/07/23 02:38:42;;;;;;;11.77;10.82;;;;;;;22.91;100.00;99215.66;5051204;28;20293;-80
2022/07/23 02:41:09;;;;;;;12.10;11.02;;;;;;;22.89;100.00;99213.22;5055753;28;20781;-79
2022/07/23 02:43:36;;;;;;;12.23;11.20;;;;;;;22.93;100.00;99227.88;5050179;28;20241;-79
2022/07/23 02:46:03;;;;;;;11.85;10.65;;;;;;;22.89;100.00;99215.97;5055255;28;20226;-79
2022/07/23 02:48:30;;;;;;;11.82;10.77;;;;;;;22.87;100.00;99203.72;5059819;28;20313;-79
2022/07/23 02:50:58;;;;;;;12.10;11.02;;;;;;;22.87;100.00;99190.06;5061059;28;20233;-79
2022/07/23 02:53:30;;;;;;;12.25;11.10;;;;;;;22.85;100.00;99190.38;5056628;28;20253;-79
2022/07/23 02:55:57;;;;;;;11.93;10.82;;;;;;;22.86;100.00;99188.47;5051262;28;20260;-79
2022/07/23 02:58:26;;;;;;;13.25;11.52;;;;;;;22.89;100.00;99185.09;5036436;28;20314;-78
2022/07/23 03:00:53;;;;;;;12.25;11.18;;;;;;;22.93;100.00;99180.63;5054997;28;20229;-78
2022/07/23 03:03:20;;;;;;;12.35;11.25;;;;;;;22.83;100.00;99193.41;5056381;28;20240;-79
2022/07/23 03:05:47;;;;;;;12.77;11.20;;;;;;;22.82;100.00;99196.44;5051850;28;20237;-79
2022/07/23 03:08:13;;;;;;;13.02;11.73;;;;;;;22.78;100.00;99185.34;5054647;28;20271;-78
2022/07/23 03:10:43;;;;;;;12.43;11.43;;;;;;;22.71;100.00;99195.09;5054982;28;20228;-78
2022/07/23 03:13:10;;;;;;;12.10;11.00;;;;;;;22.69;100.00;99194.56;5054822;28;20834;-79
2022/07/23 03:15:36;;;;;;;12.88;11.68;;;;;;;22.66;100.00;99200.66;5054742;28;20229;-78
2022/07/23 03:18:03;;;;;;;12.13;11.13;;;;;;;22.63;100.00;99184.91;5051562;28;20240;-78
2022/07/23 03:20:30;;;;;;;12.23;11.20;;;;;;;22.63;100.00;99185.66;5051551;28;20259;-80
2022/07/23 03:22:57;;;;;;;13.00;11.77;;;;;;;22.59;100.00;99195.59;5053168;28;20582;-78
2022/07/23 03:25:23;;;;;;;12.55;11.55;;;;;;;22.58;100.00;99195.94;5052598;28;21032;-78
2022/07/23 03:27:50;;;;;;;12.38;11.38;;;;;;;22.53;100.00;99196.03;5055694;28;20258;-78
2022/07/23 03:30:18;;;;;;;13.00;11.80;;;;;;;22.50;100.00;99200.19;5051210;28;20318;-78
2022/07/23 03:32:44;;;;;;;11.88;10.98;;;;;;;22.48;100.00;99202.44;5052733;28;20272;-77
2022/07/23 03:35:11;;;;;;;12.57;11.57;;;;;;;22.49;100.00;99208.69;5053598;28;20704;-77
2022/07/23 03:37:46;;;;;;;12.55;11.48;;;;;;;22.44;100.00;99211.53;5027790;28;20229;-78
2022/07/23 03:40:13;;;;;;;13.00;11.80;;;;;;;22.40;100.00;99225.78;5029383;28;20222;-80
2022/07/23 03:42:41;;;;;;;12.32;11.35;;;;;;;22.43;100.00;99221.66;5024734;28;20593;-80
2022/07/23 03:45:09;;;;;;;13.10;11.95;;;;;;;22.40;100.00;99222.25;5023457;28;20243;-80
2022/07/23 03:47:35;;;;;;;13.23;12.15;;;;;;;22.36;100.00;99211.13;5025380;28;20230;-79
2022/07/23 03:50:03;;;;;;;13.52;12.32;;;;;;;22.48;100.00;99218.00;5024879;28;20707;-81
2022/07/23 03:52:31;;;;;;;14.95;13.18;;;;;;;22.48;100.00;99218.81;5025017;28;20272;-80
2022/07/23 03:54:57;;;;;;;12.70;11.60;;;;;;;22.35;100.00;99214.97;5027168;28;20729;-80
2022/07/23 03:57:24;;;;;;;13.52;12.30;;;;;;;22.31;100.00;99219.44;5011473;28;20249;-80
2022/07/23 03:59:52;;;;;;;12.68;11.50;;;;;;;22.39;100.00;99232.38;5039593;28;20232;-80
2022/07/23 04:02:18;;;;;;;13.18;11.98;;;;;;;22.47;100.00;99235.47;5026978;28;20321;-80
2022/07/23 04:04:46;;;;;;;13.25;12.10;;;;;;;22.56;100.00;99231.72;5020433;28;20229;-82
2022/07/23 04:07:13;;;;;;;12.70;11.68;;;;;;;22.64;100.00;99239.16;5025331;28;20263;-79
2022/07/23 04:09:40;;;;;;;12.50;11.45;;;;;;;22.75;100.00;99239.78;5026816;28;20225;-80
2022/07/23 04:12:12;;;;;;;12.55;11.27;;;;;;;22.89;100.00;99247.91;5032219;28;20315;-80
2022/07/23 04:14:39;;;;;;;13.13;11.93;;;;;;;23.03;100.00;99251.41;5026508;28;20237;-80
2022/07/23 04:17:06;;;;;;;12.32;11.23;;;;;;;23.21;100.00;99255.88;5026912;28;20725;-79
2022/07/23 04:19:32;;;;;;;13.05;11.73;;;;;;;23.33;100.00;99261.56;5022652;28;20257;-80
2022/07/23 04:22:03;;;;;;;13.52;12.20;;;;;;;23.45;100.00;99275.53;5005972;28;20231;-79
2022/07/23 04:24:33;;;;;;;12.35;11.35;;;;;;;23.61;100.00;99264.97;5030819;28;20725;-79
2022/07/23 04:26:59;;;;;;;12.73;11.73;;;;;;;23.73;100.00;99275.34;5018135;28;20724;-79
2022/07/23 04:29:26;;;;;;;12.55;11.55;;;;;;;23.83;100.00;99269.59;5024864;28;20230;-78
2022/07/23 04:31:53;;;;;;;12.63;11.38;;;;;;;24.03;100.00;99275.31;5047120;28;20271;-79
2022/07/23 04:34:20;;;;;;;13.55;12.15;;;;;;;24.27;100.00;99279.59;5052244;28;20237;-80
2022/07/23 04:36:47;;;;;;;13.80;11.63;;;;;;;24.51;100.00;99274.50;5043963;28;20225;-80
2022/07/23 04:39:14;;;;;;;12.88;11.32;;;;;;;24.74;100.00;99280.66;5043502;28;20252;-80
2022/07/23 04:41:41;;;;;;;14.38;12.98;;;;;;;24.93;100.00;99281.97;5046970;28;20277;-83
2022/07/23 04:44:08;;;;;;;15.23;13.82;;;;;;;25.09;100.00;99276.03;5026025;28;20225;-80
2022/07/23 04:46:35;;;;;;;13.95;12.73;;;;;;;25.11;100.00;99281.97;5040701;28;20321;-80
2022/07/23 04:49:02;;;;;;;12.70;11.60;;;;;;;25.07;100.00;99291.97;5047398;28;20279;-80
2022/07/23 04:51:29;;;;;;;14.70;13.50;;;;;;;24.95;100.00;99282.47;5048148;28;20241;-83
2022/07/23 04:53:56;;;;;;;14.13;12.93;;;;;;;24.83;100.00;99281.44;5044626;28;20240;-81
2022/07/23 04:56:23;;;;;;;12.55;11.35;;;;;;;24.77;100.00;99280.84;5045686;28;20248;-80
2022/07/23 04:58:49;;;;;;;12.52;11.32;;;;;;;24.71;100.00;99278.56;5035357;28;20366;-81
2022/07/23 05:01:16;;;;;;;12.80;11.50;;;;;;;24.64;100.00;99276.28;5049832;28;20247;-80
2022/07/23 05:03:44;;;;;;;13.00;11.80;;;;;;;24.62;100.00;99275.00;5045776;28;20303;-80
2022/07/23 05:06:11;;;;;;;12.70;11.65;;;;;;;24.58;100.00;99269.38;5039416;28;20226;-83
2022/07/23 05:08:37;;;;;;;13.18;11.98;;;;;;;24.60;100.00;99277.25;5042774;28;20234;-81
2022/07/23 05:11:04;;;;;;;13.07;11.75;;;;;;;24.71;100.00;99279.38;5046796;28;20236;-81
2022/07/23 05:13:31;;;;;;;12.93;11.93;;;;;;;24.79;100.00;99267.59;5031438;28;20317;-80
2022/07/23 05:15:58;;;;;;;13.25;12.15;;;;;;;24.83;100.00;99265.00;5051354;28;20313;-79
2022/07/23 05:18:25;;;;;;;13.07;11.88;;;;;;;25.05;100.00;99269.56;5045008;28;20234;-80
2022/07/23 05:20:52;;;;;;;12.57;11.63;;;;;;;25.42;100.00;99264.22;5049183;28;20288;-80
2022/07/23 05:23:21;;;;;;;13.05;11.80;;;;;;;25.69;100.00;99275.94;5045006;28;20658;-80
2022/07/23 05:25:49;;;;;;;13.50;12.25;;;;;;;25.99;100.00;99274.06;5041085;28;20726;-79
2022/07/23 05:28:16;;;;;;;12.68;11.60;;;;;;;26.20;100.00;99277.66;5038719;28;20243;-80
2022/07/23 05:30:48;;;;;;;13.10;11.77;;;;;;;26.51;100.00;99277.34;5066232;28;20236;-81
2022/07/23 05:33:19;;;;;;;12.30;11.27;;;;;;;26.71;100.00;99282.84;5046610;28;20283;-79
2022/07/23 05:35:46;;;;;;;12.93;11.20;;;;;;;27.00;100.00;99286.72;5054490;28;20232;-82
2022/07/23 05:38:25;;;;;;;11.55;10.75;;;;;;;27.26;100.00;99290.03;5021462;28;20225;-80
2022/07/23 05:40:54;;;;;;;12.57;11.57;;;;;;;27.46;100.00;99288.38;5049138;28;20632;-80
2022/07/23 05:43:20;;;;;;;13.13;11.65;;;;;;;27.63;100.00;99290.97;5047748;28;20715;-80
2022/07/23 05:45:48;;;;;;;11.65;10.75;;;;;;;27.81;93.41;99294.38;5049011;28;20283;-80
2022/07/23 05:48:14;;;;;;;12.02;10.90;;;;;;;27.92;87.79;99298.25;5054155;28;20658;-79
2022/07/23 05:50:52;;;;;;;12.40;11.40;;;;;;;28.04;83.00;99295.53;5048907;28;20225;-79
2022/07/23 05:53:27;;;;;;;11.68;10.45;;;;;;;28.15;82.43;99293.16;5051706;28;20233;-80
2022/07/23 05:56:23;;;;;;;11.10;10.10;;;;;;;28.29;80.92;99296.38;5033950;28;20234;-79
2022/07/23 05:58:50;;;;;;;12.30;11.35;;;;;;;28.32;79.14;99299.22;5046396;28;20272;-79
2022/07/23 06:01:18;;;;;;;11.32;10.25;;;;;;;28.49;77.95;99286.38;5048921;28;20257;-79
2022/07/23 06:04:06;;;;;;;11.57;10.52;;;;;;;28.85;72.67;99289.06;5067700;28;20745;-81
2022/07/23 06:06:36;;;;;;;11.70;10.50;;;;;;;28.88;73.82;99289.19;5050115;28;20233;-81
2022/07/23 06:09:03;;;;;;;12.13;10.93;;;;;;;29.01;72.54;99286.41;5052886;28;20232;-80
2022/07/23 06:11:30;;;;;;;11.43;10.32;;;;;;;29.07;72.80;99290.53;5051397;28;20707;-80
2022/07/23 06:13:57;;;;;;;11.57;10.40;;;;;;;29.26;73.23;99302.50;5050306;28;20279;-79
2022/07/23 06:16:34;;;;;;;11.38;10.43;;;;;;;29.29;74.23;99295.50;5032583;28;20248;-79
2022/07/23 06:19:01;;;;;;;11.50;10.38;;;;;;;29.48;70.30;99298.41;5051563;28;20237;-81
2022/07/23 06:21:30;;;;;;;11.02;10.23;;;;;;;29.55;70.64;99295.03;5052782;28;20229;-79
2022/07/23 06:24:15;;;;;;;12.10;10.25;;;;;;;29.55;72.57;99289.50;5058155;28;20913;-80
2022/07/23 06:26:42;;;;;;;10.88;10.02;;;;;;;29.65;73.10;99289.81;5058238;28;20253;-79
2022/07/23 06:29:08;;;;;;;12.32;11.32;;;;;;;29.38;73.33;99292.59;5046058;28;20226;-79
2022/07/23 06:31:35;;;;;;;11.05;10.20;;;;;;;29.74;70.01;99284.13;5044091;28;20316;-80
2022/07/23 06:34:02;;;;;;;11.05;10.05;;;;;;;30.03;67.34;99296.72;5056116;28;20252;-79
2022/07/23 06:36:29;;;;;;;11.05;10.18;;;;;;;30.31;65.18;99293.84;5021153;28;20226;-79
2022/07/23 06:38:56;;;;;;;10.95;10.00;;;;;;;30.24;63.42;99283.41;5062519;28;20722;-79
2022/07/23 06:41:23;;;;;;;10.93;10.02;;;;;;;30.11;65.83;99282.72;5056965;28;20229;-80
2022/07/23 06:43:50;;;;;;;10.73;9.93;;;;;;;30.50;65.31;99283.69;5059440;28;20311;-80
2022/07/23 06:46:17;;;;;;;11.20;10.10;;;;;;;30.61;63.40;99284.72;5061537;28;20229;-80
2022/07/23 06:48:43;;;;;;;10.20;9.27;;;;;;;30.75;62.42;99286.22;5055445;28;20276;-79
2022/07/23 06:51:10;;;;;;;9.43;8.63;;;;;;;30.91;59.00;99279.44;5051862;28;20237;-79
2022/07/23 06:53:37;;;;;;;10.20;9.27;;;;;;;30.87;61.63;99281.34;5058947;28;20744;-80
2022/07/23 06:56:04;;;;;;;8.85;7.97;;;;;;;31.00;56.89;99279.25;5057352;28;20239;-79
2022/07/23 06:58:32;;;;;;;7.63;7.00;;;;;;;31.31;50.72;99276.34;5050238;28;20279;-81
2022/07/23 07:00:58;;;;;;;7.57;6.25;;;;;;;31.43;47.15;99276.19;5052578;28;20356;-81
2022/07/23 07:03:25;;;;;;;6.45;5.95;;;;;;;31.50;46.75;99275.50;5051793;28;20324;-81
2022/07/23 07:05:52;;;;;;;7.00;6.30;;;;;;;31.79;45.89;99271.31;5054243;28;20819;-80
2022/07/23 07:08:19;;;;;;;6.53;5.93;;;;;;;31.79;44.44;99276.84;5055610;28;20297;-82
2022/07/23 07:10:46;;;;;;;6.45;5.90;;;;;;;31.95;44.67;99279.50;5053658;28;20241;-80
2022/07/23 07:13:12;;;;;;;6.80;6.20;;;;;;;31.98;43.93;99273.22;5053653;28;20722;-80
2022/07/23 07:15:39;;;;;;;5.70;5.30;;;;;;;31.92;41.75;99264.41;5035467;28;20242;-81
2022/07/23 07:18:06;;;;;;;9.55;5.25;;;;;;;31.87;41.50;99268.28;5053126;28;20240;-80
2022/07/23 07:20:32;;;;;;;7.05;5.80;;;;;;;32.04;43.89;99263.44;5050948;28;20321;-81
2022/07/23 07:22:59;;;;;;;6.22;5.60;;;;;;;32.15;43.76;99267.22;5048470;28;20245;-80
2022/07/23 07:25:26;;;;;;;5.10;4.70;;;;;;;32.15;40.60;99265.22;5054972;28;20245;-81
2022/07/23 07:27:52;;;;;;;4.82;4.35;;;;;;;32.38;40.76;99265.19;5051201;28;20380;-80
2022/07/23 07:30:19;;;;;;;5.10;4.70;;;;;;;32.44;39.58;99260.91;5053808;28;20316;-79
2022/07/23 07:32:45;;;;;;;6.45;4.88;;;;;;;32.38;39.51;99261.63;5051946;28;20236;-80
2022/07/23 07:35:24;;;;;;;5.10;4.70;;;;;;;32.54;39.20;99265.81;5050543;28;20245;-79
2022/07/23 07:37:50;;;;;;;6.22;4.47;;;;;;;32.64;38.69;99261.63;5031087;28;20252;-81
2022/07/23 07:40:17;;;;;;;6.45;4.45;;;;;;;32.73;37.20;99268.50;5052242;28;20234;-80
2022/07/23 07:42:46;;;;;;;6.10;4.25;;;;;;;32.94;36.79;99270.75;5054509;28;20286;-80
2022/07/23 07:45:12;;;;;;;4.03;3.70;;;;;;;33.05;36.15;99263.34;5052174;28;20900;-80
2022/07/23 07:47:39;;;;;;;4.40;3.97;;;;;;;33.20;35.98;99281.00;5051458;28;20596;-80
2022/07/23 07:50:07;;;;;;;6.35;4.05;;;;;;;33.53;35.25;99278.22;5048259;28;20237;-80
2022/07/23 07:52:36;;;;;;;4.32;3.92;;;;;;;33.75;34.38;99282.03;5057018;28;20307;-80
2022/07/23 07:55:04;;;;;;;4.93;4.43;;;;;;;33.99;33.64;99280.66;5054216;28;20268;-81
2022/07/23 07:57:31;;;;;;;4.95;4.45;;;;;;;34.19;34.04;99282.06;5054806;28;20220;-80
2022/07/23 07:59:58;;;;;;;5.18;4.13;;;;;;;34.07;33.19;99276.75;5050578;28;20715;-79
2022/07/23 08:02:48;;;;;;;4.50;4.13;;;;;;;34.25;32.77;99282.50;5039896;28;20229;-80
2022/07/23 08:05:26;;;;;;;4.93;4.43;;;;;;;34.56;32.18;99290.25;5027304;28;20646;-80
2022/07/23 08:07:58;;;;;;;5.63;4.20;;;;;;;34.93;32.04;99281.72;5027486;28;20298;-80
2022/07/23 08:10:26;;;;;;;4.80;4.50;;;;;;;34.80;32.36;99286.84;5028503;28;20325;-79
2022/07/23 08:12:56;;;;;;;4.78;4.40;;;;;;;35.21;31.41;99283.88;5025786;28;20233;-80
2022/07/23 08:15:25;;;;;;;5.05;4.50;;;;;;;34.96;31.25;99283.72;5028855;28;20831;-80
2022/07/23 08:17:52;;;;;;;5.00;4.60;;;;;;;35.11;31.10;99284.59;5028854;28;20670;-79
2022/07/23 08:20:20;;;;;;;6.10;4.57;;;;;;;35.13;30.99;99294.16;5049730;28;20221;-79
2022/07/23 08:22:59;;;;;;;5.10;4.70;;;;;;;34.95;30.96;99275.78;5046173;28;20229;-82
2022/07/23 08:25:28;;;;;;;5.80;5.18;;;;;;;34.78;31.35;99299.53;5050186;28;20233;-78
2022/07/23 08:27:55;;;;;;;5.07;4.72;;;;;;;34.65;31.53;99292.69;5050396;28;20332;-80
2022/07/23 08:30:22;;;;;;;5.65;5.15;;;;;;;34.45;31.62;99292.16;5049536;28;20272;-81
2022/07/23 08:32:56;;;;;;;5.28;4.78;;;;;;;34.57;31.56;99286.28;5046538;28;20233;-79
2022/07/23 08:35:34;;;;;;;5.93;5.32;;;;;;;34.37;32.52;99287.72;5047596;28;20953;-82
2022/07/23 08:38:04;;;;;;;5.65;5.15;;;;;;;34.13;32.41;99277.19;5027589;28;20781;-82
2022/07/23 08:40:33;;;;;;;5.15;4.72;;;;;;;34.12;33.00;99281.94;5046558;28;20701;-81
2022/07/23 08:43:05;;;;;;;5.30;4.90;;;;;;;34.16;33.47;99288.31;5030906;28;20328;-79
2022/07/23 08:45:36;;;;;;;5.18;4.70;;;;;;;34.32;32.65;99285.31;5049704;28;20236;-79
2022/07/23 08:48:05;;;;;;;4.93;4.63;;;;;;;34.14;32.24;99285.16;5049072;28;20225;-79
2022/07/23 08:50:32;;;;;;;5.53;5.13;;;;;;;33.98;32.92;99287.38;5050845;28;20245;-80
2022/07/23 08:53:00;;;;;;;4.82;4.43;;;;;;;34.20;33.04;99280.88;5049095;28;20252;-80
2022/07/23 08:55:27;;;;;;;5.70;4.95;;;;;;;34.23;33.64;99279.28;5049412;28;20226;-79
2022/07/23 08:57:53;;;;;;;5.22;4.70;;;;;;;34.29;33.67;99280.53;5046107;28;20283;-81
2022/07/23 09:00:21;;;;;;;6.00;5.00;;;;;;;34.31;33.78;99278.16;5049807;28;20684;-78
2022/07/23 09:02:49;;;;;;;5.50;5.10;;;;;;;34.57;33.96;99279.94;5050307;28;20324;-79
2022/07/23 09:05:16;;;;;;;5.20;4.80;;;;;;;34.51;32.88;99281.47;5048250;28;20257;-79
2022/07/23 09:08:04;;;;;;;5.20;4.80;;;;;;;34.69;32.75;99280.41;5048356;28;20601;-79
2022/07/23 09:10:46;;;;;;;5.07;4.68;;;;;;;34.67;33.58;99277.22;5046164;28;20252;-79
2022/07/23 09:13:38;;;;;;;5.20;4.80;;;;;;;34.85;32.76;99275.34;5043927;28;20233;-81
2022/07/23 09:16:15;;;;;;;5.15;4.75;;;;;;;34.99;33.09;99274.63;5037195;28;20221;-79
2022/07/23 09:18:44;;;;;;;5.28;4.97;;;;;;;34.98;32.42;99267.44;5039191;28;20226;-79
2022/07/23 09:21:13;;;;;;;5.13;4.82;;;;;;;34.77;32.11;99270.13;5043654;28;20229;-79
2022/07/23 09:23:47;;;;;;;5.32;4.85;;;;;;;34.81;31.53;99268.94;5037671;28;20692;-78
2022/07/23 09:26:19;;;;;;;5.35;4.95;;;;;;;34.90;31.15;99260.25;5043345;28;20244;-79
2022/07/23 09:28:55;;;;;;;5.20;4.80;;;;;;;34.93;31.87;99267.81;5038524;28;20226;-79
2022/07/23 09:31:22;;;;;;;5.63;5.22;;;;;;;35.15;31.08;99258.34;5042352;28;20237;-79
2022/07/23 09:33:49;;;;;;;5.18;4.78;;;;;;;35.21;31.03;99258.81;5038041;28;20235;-79
2022/07/23 09:36:27;;;;;;;5.88;5.32;;;;;;;35.26;31.45;99258.44;5038798;28;20217;-78
2022/07/23 09:38:53;;;;;;;5.32;4.85;;;;;;;35.36;31.69;99254.06;5045299;28;20241;-79
2022/07/23 09:41:20;;;;;;;5.85;5.30;;;;;;;35.33;30.82;99250.06;5041174;28;20240;-79
2022/07/23 09:43:47;;;;;;;5.43;5.00;;;;;;;35.50;31.19;99246.56;5044606;28;20284;-79
2022/07/23 09:46:25;;;;;;;5.88;5.30;;;;;;;35.71;30.58;99235.44;5045745;28;20332;-79
2022/07/23 09:48:53;;;;;;;5.40;5.00;;;;;;;35.97;30.73;99241.84;5038277;28;20225;-79
2022/07/23 09:54:02;;;;;;;5.22;4.85;;;;;;;35.96;28.47;99235.47;5038235;28;20225;-79
2022/07/23 09:56:31;;;;;;;5.32;5.03;;;;;;;35.87;29.82;99229.50;5036513;28;20242;-79
2022/07/23 09:59:31;;;;;;;5.25;4.90;;;;;;;36.01;29.22;99231.47;5041137;28;20256;-82
2022/07/23 10:01:52;;;;;;;5.53;5.13;;;;;;;36.04;28.48;99220.31;5038166;28;21215;-80
2022/07/23 10:04:20;;;;;;;5.38;5.03;;;;;;;36.17;29.04;99226.31;5036612;28;20233;-79
2022/07/23 10:07:10;;;;;;;5.57;5.18;;;;;;;36.26;28.49;99225.91;5039082;28;20239;-80
2022/07/23 10:09:58;;;;;;;6.22;5.72;;;;;;;36.35;28.01;99217.94;5044996;28;20705;-80
2022/07/23 10:15:15;;;;;;;5.55;5.13;;;;;;;36.67;27.08;99206.69;5045292;28;20307;-81
2022/07/23 10:17:41;;;;;;;5.20;4.80;;;;;;;36.73;27.42;99210.63;5041296;28;20337;-80
2022/07/23 10:20:08;;;;;;;5.35;4.95;;;;;;;36.85;26.40;99211.00;5045417;28;20267;-81
2022/07/23 10:22:40;;;;;;;5.35;5.05;;;;;;;36.66;26.67;99207.91;5041853;28;20217;-81
2022/07/23 10:25:12;;;;;;;6.03;5.53;;;;;;;36.73;26.84;99207.84;5042238;28;20634;-80
2022/07/23 10:27:46;;;;;;;5.40;5.03;;;;;;;36.85;26.85;99204.63;5045412;28;20268;-81
2022/07/23 10:30:45;;;;;;;5.60;5.20;;;;;;;36.91;26.17;99209.38;5042678;28;20294;-82
2022/07/23 10:33:23;;;;;;;4.80;4.50;;;;;;;36.89;25.97;99210.97;5045396;28;20244;-82
2022/07/23 10:35:58;;;;;;;4.80;4.40;;;;;;;36.89;24.49;99211.78;5025626;28;20222;-82
2022/07/23 10:38:30;;;;;;;4.80;4.43;;;;;;;36.55;24.72;99199.53;5043002;28;20228;-81
2022/07/23 10:41:03;;;;;;;4.97;4.60;;;;;;;36.25;25.09;99196.44;5043209;28;20233;-81
2022/07/23 10:43:30;;;;;;;4.95;4.55;;;;;;;36.16;25.70;99200.41;5043412;28;20763;-80
2022/07/23 10:46:28;;;;;;;5.35;4.95;;;;;;;35.97;25.99;99205.59;5042721;28;20226;-81
2022/07/23 10:49:29;;;;;;;5.57;5.18;;;;;;;36.04;26.41;99195.22;5038086;28;20229;-82
2022/07/23 10:52:14;;;;;;;5.40;4.95;;;;;;;36.18;26.43;99194.44;5043719;28;20240;-81
2022/07/23 10:54:41;;;;;;;5.63;5.28;;;;;;;36.26;26.84;99189.66;5040808;28;20222;-81
2022/07/23 10:57:09;;;;;;;4.95;4.55;;;;;;;36.53;26.04;99187.97;5041727;28;20244;-81
2022/07/23 11:00:01;;;;;;;6.20;5.60;;;;;;;37.18;26.00;99183.75;5044591;28;20722;-81
2022/07/23 11:02:29;;;;;;;5.82;5.28;;;;;;;37.32;25.44;99175.28;5039775;28;20230;-81
2022/07/23 11:05:00;;;;;;;5.38;4.95;;;;;;;37.38;25.99;99179.19;5043263;28;20939;-81
2022/07/23 11:07:27;;;;;;;5.85;5.40;;;;;;;37.33;23.74;99163.66;5050444;28;20218;-81
2022/07/23 11:09:54;;;;;;;5.68;5.28;;;;;;;37.17;24.30;99168.19;5049655;28;20238;-81
2022/07/23 11:12:21;;;;;;;5.70;5.20;;;;;;;37.43;25.39;99167.59;5045393;28;20343;-81
2022/07/23 11:15:07;;;;;;;6.32;5.82;;;;;;;37.38;25.19;99163.22;5048743;28;20221;-78
2022/07/23 11:17:43;;;;;;;6.80;6.20;;;;;;;37.13;26.55;99157.03;5050035;28;20225;-79
2022/07/23 11:20:09;;;;;;;6.20;5.70;;;;;;;36.98;26.72;99164.69;5049700;28;20256;-81
2022/07/23 11:22:46;;;;;;;6.40;5.85;;;;;;;36.95;27.00;99165.50;5049883;28;20261;-80
2022/07/23 11:25:31;;;;;;;7.18;6.18;;;;;;;36.95;26.75;99157.13;5046939;28;20233;-79
2022/07/23 11:28:13;;;;;;;7.55;6.47;;;;;;;37.04;27.57;99165.03;5047240;28;20269;-80
2022/07/23 11:30:43;;;;;;;6.50;6.00;;;;;;;36.70;26.05;99164.03;5048604;28;20233;-79
2022/07/23 11:33:10;;;;;;;6.63;6.10;;;;;;;36.70;26.27;99170.41;5050435;28;20320;-79
2022/07/23 11:35:38;;;;;;;6.93;6.22;;;;;;;36.32;26.11;99172.09;5049254;28;20233;-79